sensor_id;sensor_type;location;lat;lon;timestamp;temperature;humidity
1337;DHT22;662;48.814;9.318;2022-07-11T00:02:04;19.00;51.90
1337;DHT22;662;48.814;9.318;2022-07-11T00:04:30;19.00;51.90
1337;DHT22;662;48.814;9.318;2022-07-11T00:06:56;18.90;52.00
1337;DHT22;662;48.814;9.318;2022-07-11T00:09:22;18.90;51.90
1337;DHT22;662;48.814;9.318;2022-07-11T00:11:48;18.90;51.90
1337;DHT22;662;48.814;9.318;2022-07-11T00:14:15;18.90;52.00
1337;DHT22;662;48.814;9.318;2022-07-11T00:16:41;18.90;52.10
1337;DHT22;662;48.814;9.318;2022-07-11T00:19:07;18.90;52.10
1337;DHT22;662;48.814;9.318;2022-07-11T00:21:33;18.90;52.20
1337;DHT22;662;48.814;9.318;2022-07-11T00:24:05;18.80;52.30
1337;DHT22;662;48.814;9.318;2022-07-11T00:26:30;18.80;52.40
1337;DHT22;662;48.814;9.318;2022-07-11T00:28:56;18.80;52.50
1337;DHT22;662;48.814;9.318;2022-07-11T00:31:22;18.80;52.60
1337;DHT22;662;48.814;9.318;2022-07-11T00:33:48;18.70;52.60
1337;DHT22;662;48.814;9.318;2022-07-11T00:36:14;18.70;52.80
1337;DHT22;662;48.814;9.318;2022-07-11T00:38:39;18.70;53.00
1337;DHT22;662;48.814;9.318;2022-07-11T00:41:05;18.60;53.20
1337;DHT22;662;48.814;9.318;2022-07-11T00:43:36;18.60;53.30
1337;DHT22;662;48.814;9.318;2022-07-11T00:46:02;18.60;53.40
1337;DHT22;662;48.814;9.318;2022-07-11T00:48:28;18.60;53.60
1337;DHT22;662;48.814;9.318;2022-07-11T00:50:54;18.60;53.70
1337;DHT22;662;48.814;9.318;2022-07-11T00:53:21;18.50;53.60
1337;DHT22;662;48.814;9.318;2022-07-11T00:55:47;18.50;53.70
1337;DHT22;662;48.814;9.318;2022-07-11T00:58:14;18.50;53.80
1337;DHT22;662;48.814;9.318;2022-07-11T01:00:42;18.50;53.80
1337;DHT22;662;48.814;9.318;2022-07-11T01:03:08;18.50;54.00
1337;DHT22;662;48.814;9.318;2022-07-11T01:05:34;18.40;54.00
1337;DHT22;662;48.814;9.318;2022-07-11T01:08:00;18.40;54.00
1337;DHT22;662;48.814;9.318;2022-07-11T01:10:25;18.40;54.00
1337;DHT22;662;48.814;9.318;2022-07-11T01:12:51;18.40;54.10
1337;DHT22;662;48.814;9.318;2022-07-11T01:15:17;18.30;54.00
1337;DHT22;662;48.814;9.318;2022-07-11T01:17:42;18.30;54.00
1337;DHT22;662;48.814;9.318;2022-07-11T01:20:09;18.30;53.90
1337;DHT22;662;48.814;9.318;2022-07-11T01:22:47;18.30;54.20
1337;DHT22;662;48.814;9.318;2022-07-11T01:25:16;18.30;54.10
1337;DHT22;662;48.814;9.318;2022-07-11T01:28:00;18.30;54.00
1337;DHT22;662;48.814;9.318;2022-07-11T01:30:26;18.20;54.20
1337;DHT22;662;48.814;9.318;2022-07-11T01:32:53;18.20;54.30
1337;DHT22;662;48.814;9.318;2022-07-11T01:35:19;18.20;54.40
1337;DHT22;662;48.814;9.318;2022-07-11T01:37:45;18.20;54.30
1337;DHT22;662;48.814;9.318;2022-07-11T01:40:11;18.20;54.30
1337;DHT22;662;48.814;9.318;2022-07-11T01:42:36;18.20;54.30
1337;DHT22;662;48.814;9.318;2022-07-11T01:45:02;18.20;54.50
1337;DHT22;662;48.814;9.318;2022-07-11T01:47:28;18.20;54.60
1337;DHT22;662;48.814;9.318;2022-07-11T01:49:54;18.20;54.60
1337;DHT22;662;48.814;9.318;2022-07-11T01:52:20;18.20;54.60
1337;DHT22;662;48.814;9.318;2022-07-11T01:54:46;18.20;54.80
1337;DHT22;662;48.814;9.318;2022-07-11T01:57:13;18.20;54.70
1337;DHT22;662;48.814;9.318;2022-07-11T01:59:38;18.20;54.80
1337;DHT22;662;48.814;9.318;2022-07-11T02:02:04;18.20;55.00
1337;DHT22;662;48.814;9.318;2022-07-11T02:04:30;18.10;55.00
1337;DHT22;662;48.814;9.318;2022-07-11T02:06:55;18.20;55.10
1337;DHT22;662;48.814;9.318;2022-07-11T02:09:21;18.20;55.20
1337;DHT22;662;48.814;9.318;2022-07-11T02:11:47;18.10;55.10
1337;DHT22;662;48.814;9.318;2022-07-11T02:14:12;18.20;55.10
1337;DHT22;662;48.814;9.318;2022-07-11T02:16:39;18.20;55.10
1337;DHT22;662;48.814;9.318;2022-07-11T02:19:05;18.10;55.00
1337;DHT22;662;48.814;9.318;2022-07-11T02:21:32;18.10;55.10
1337;DHT22;662;48.814;9.318;2022-07-11T02:23:58;18.10;55.10
1337;DHT22;662;48.814;9.318;2022-07-11T02:26:23;18.10;55.30
1337;DHT22;662;48.814;9.318;2022-07-11T02:28:49;18.10;55.30
1337;DHT22;662;48.814;9.318;2022-07-11T02:31:14;18.10;55.40
1337;DHT22;662;48.814;9.318;2022-07-11T02:33:40;18.10;55.30
1337;DHT22;662;48.814;9.318;2022-07-11T02:36:06;18.10;55.40
1337;DHT22;662;48.814;9.318;2022-07-11T02:38:34;18.10;55.40
1337;DHT22;662;48.814;9.318;2022-07-11T02:40:59;18.10;55.50
1337;DHT22;662;48.814;9.318;2022-07-11T02:43:26;18.10;55.60
1337;DHT22;662;48.814;9.318;2022-07-11T02:45:51;18.10;55.50
1337;DHT22;662;48.814;9.318;2022-07-11T02:48:17;18.10;55.70
1337;DHT22;662;48.814;9.318;2022-07-11T02:50:42;18.20;55.70
1337;DHT22;662;48.814;9.318;2022-07-11T02:53:08;18.10;55.70
1337;DHT22;662;48.814;9.318;2022-07-11T02:55:34;18.10;55.60
1337;DHT22;662;48.814;9.318;2022-07-11T02:58:00;18.10;55.70
1337;DHT22;662;48.814;9.318;2022-07-11T03:00:26;18.10;55.80
1337;DHT22;662;48.814;9.318;2022-07-11T03:02:51;18.20;55.80
1337;DHT22;662;48.814;9.318;2022-07-11T03:05:17;18.10;55.70
1337;DHT22;662;48.814;9.318;2022-07-11T03:07:43;18.10;55.70
1337;DHT22;662;48.814;9.318;2022-07-11T03:10:09;18.10;55.70
1337;DHT22;662;48.814;9.318;2022-07-11T03:12:34;18.10;55.70
1337;DHT22;662;48.814;9.318;2022-07-11T03:15:00;18.20;55.70
1337;DHT22;662;48.814;9.318;2022-07-11T03:17:26;18.10;55.60
1337;DHT22;662;48.814;9.318;2022-07-11T03:19:52;18.10;55.70
1337;DHT22;662;48.814;9.318;2022-07-11T03:22:17;18.20;55.90
1337;DHT22;662;48.814;9.318;2022-07-11T03:24:43;18.20;55.90
1337;DHT22;662;48.814;9.318;2022-07-11T03:27:09;18.10;56.00
1337;DHT22;662;48.814;9.318;2022-07-11T03:29:36;18.10;56.00
1337;DHT22;662;48.814;9.318;2022-07-11T03:32:01;18.10;56.10
1337;DHT22;662;48.814;9.318;2022-07-11T03:34:27;18.20;56.10
1337;DHT22;662;48.814;9.318;2022-07-11T03:36:53;18.20;56.10
1337;DHT22;662;48.814;9.318;2022-07-11T03:39:20;18.20;56.00
1337;DHT22;662;48.814;9.318;2022-07-11T03:41:47;18.10;55.90
1337;DHT22;662;48.814;9.318;2022-07-11T03:44:12;18.10;56.00
1337;DHT22;662;48.814;9.318;2022-07-11T03:46:38;18.20;56.30
1337;DHT22;662;48.814;9.318;2022-07-11T03:49:04;18.10;56.30
1337;DHT22;662;48.814;9.318;2022-07-11T03:51:30;18.10;56.40
1337;DHT22;662;48.814;9.318;2022-07-11T03:53:56;18.10;56.50
1337;DHT22;662;48.814;9.318;2022-07-11T03:56:21;18.10;56.50
1337;DHT22;662;48.814;9.318;2022-07-11T03:58:51;18.10;56.50
1337;DHT22;662;48.814;9.318;2022-07-11T04:01:17;18.10;56.30
1337;DHT22;662;48.814;9.318;2022-07-11T04:03:45;18.10;56.30
1337;DHT22;662;48.814;9.318;2022-07-11T04:06:11;18.10;56.20
1337;DHT22;662;48.814;9.318;2022-07-11T04:08:36;18.10;56.20
1337;DHT22;662;48.814;9.318;2022-07-11T04:11:02;18.20;56.30
1337;DHT22;662;48.814;9.318;2022-07-11T04:13:29;18.20;56.30
1337;DHT22;662;48.814;9.318;2022-07-11T04:15:54;18.20;56.10
1337;DHT22;662;48.814;9.318;2022-07-11T04:18:20;18.30;56.20
1337;DHT22;662;48.814;9.318;2022-07-11T04:20:45;18.30;56.20
1337;DHT22;662;48.814;9.318;2022-07-11T04:23:11;18.30;56.20
1337;DHT22;662;48.814;9.318;2022-07-11T04:25:37;18.30;56.20
1337;DHT22;662;48.814;9.318;2022-07-11T04:28:03;18.30;56.20
1337;DHT22;662;48.814;9.318;2022-07-11T04:30:28;18.40;56.20
1337;DHT22;662;48.814;9.318;2022-07-11T04:32:55;18.40;56.60
1337;DHT22;662;48.814;9.318;2022-07-11T04:35:20;18.40;56.20
1337;DHT22;662;48.814;9.318;2022-07-11T04:37:46;18.40;56.20
1337;DHT22;662;48.814;9.318;2022-07-11T04:40:12;18.40;56.10
1337;DHT22;662;48.814;9.318;2022-07-11T04:42:38;18.40;56.10
1337;DHT22;662;48.814;9.318;2022-07-11T04:45:04;18.50;56.20
1337;DHT22;662;48.814;9.318;2022-07-11T04:47:29;18.50;56.50
1337;DHT22;662;48.814;9.318;2022-07-11T04:49:55;18.50;56.50
1337;DHT22;662;48.814;9.318;2022-07-11T04:52:21;18.50;56.50
1337;DHT22;662;48.814;9.318;2022-07-11T04:54:52;18.50;56.50
1337;DHT22;662;48.814;9.318;2022-07-11T04:57:18;18.50;56.50
1337;DHT22;662;48.814;9.318;2022-07-11T04:59:44;18.60;56.50
1337;DHT22;662;48.814;9.318;2022-07-11T05:02:09;18.60;56.40
1337;DHT22;662;48.814;9.318;2022-07-11T05:04:35;18.60;56.30
1337;DHT22;662;48.814;9.318;2022-07-11T05:07:01;18.60;56.40
1337;DHT22;662;48.814;9.318;2022-07-11T05:09:28;18.60;56.50
1337;DHT22;662;48.814;9.318;2022-07-11T05:11:53;18.70;56.60
1337;DHT22;662;48.814;9.318;2022-07-11T05:14:19;18.80;56.70
1337;DHT22;662;48.814;9.318;2022-07-11T05:16:45;18.80;56.60
1337;DHT22;662;48.814;9.318;2022-07-11T05:19:10;18.90;56.80
1337;DHT22;662;48.814;9.318;2022-07-11T05:21:36;18.90;56.70
1337;DHT22;662;48.814;9.318;2022-07-11T05:24:01;19.00;56.70
1337;DHT22;662;48.814;9.318;2022-07-11T05:26:27;19.10;56.60
1337;DHT22;662;48.814;9.318;2022-07-11T05:28:53;19.10;56.50
1337;DHT22;662;48.814;9.318;2022-07-11T05:31:18;19.20;56.40
1337;DHT22;662;48.814;9.318;2022-07-11T05:33:44;19.30;56.60
1337;DHT22;662;48.814;9.318;2022-07-11T05:36:10;19.30;56.40
1337;DHT22;662;48.814;9.318;2022-07-11T05:38:35;19.40;56.30
1337;DHT22;662;48.814;9.318;2022-07-11T05:41:01;19.50;56.40
1337;DHT22;662;48.814;9.318;2022-07-11T05:43:27;19.50;56.30
1337;DHT22;662;48.814;9.318;2022-07-11T05:45:54;19.60;56.30
1337;DHT22;662;48.814;9.318;2022-07-11T05:48:20;19.60;56.20
1337;DHT22;662;48.814;9.318;2022-07-11T05:50:45;19.60;56.20
1337;DHT22;662;48.814;9.318;2022-07-11T05:53:11;19.70;56.30
1337;DHT22;662;48.814;9.318;2022-07-11T05:55:38;19.70;56.10
1337;DHT22;662;48.814;9.318;2022-07-11T05:58:03;19.80;56.00
1337;DHT22;662;48.814;9.318;2022-07-11T06:00:29;19.90;55.90
1337;DHT22;662;48.814;9.318;2022-07-11T06:02:54;19.90;55.70
1337;DHT22;662;48.814;9.318;2022-07-11T06:05:20;20.00;55.80
1337;DHT22;662;48.814;9.318;2022-07-11T06:07:46;20.10;55.60
1337;DHT22;662;48.814;9.318;2022-07-11T06:10:30;20.10;55.40
1337;DHT22;662;48.814;9.318;2022-07-11T06:12:57;20.20;55.40
1337;DHT22;662;48.814;9.318;2022-07-11T06:15:23;20.20;55.20
1337;DHT22;662;48.814;9.318;2022-07-11T06:17:49;20.30;55.10
1337;DHT22;662;48.814;9.318;2022-07-11T06:20:15;20.30;54.90
1337;DHT22;662;48.814;9.318;2022-07-11T06:22:41;20.40;54.80
1337;DHT22;662;48.814;9.318;2022-07-11T06:25:07;20.40;54.60
1337;DHT22;662;48.814;9.318;2022-07-11T06:27:34;20.50;54.50
1337;DHT22;662;48.814;9.318;2022-07-11T06:30:00;20.60;54.40
1337;DHT22;662;48.814;9.318;2022-07-11T06:32:26;20.60;54.50
1337;DHT22;662;48.814;9.318;2022-07-11T06:34:51;20.60;54.40
1337;DHT22;662;48.814;9.318;2022-07-11T06:37:17;20.70;54.40
1337;DHT22;662;48.814;9.318;2022-07-11T06:39:42;20.80;54.50
1337;DHT22;662;48.814;9.318;2022-07-11T06:42:08;20.80;54.50
1337;DHT22;662;48.814;9.318;2022-07-11T06:44:34;20.90;54.40
1337;DHT22;662;48.814;9.318;2022-07-11T06:46:59;21.00;54.10
1337;DHT22;662;48.814;9.318;2022-07-11T06:49:25;21.10;54.00
1337;DHT22;662;48.814;9.318;2022-07-11T06:51:51;21.10;53.90
1337;DHT22;662;48.814;9.318;2022-07-11T06:54:16;21.10;53.60
1337;DHT22;662;48.814;9.318;2022-07-11T06:56:42;21.20;53.50
1337;DHT22;662;48.814;9.318;2022-07-11T06:59:07;21.30;53.40
1337;DHT22;662;48.814;9.318;2022-07-11T07:01:33;21.40;53.40
1337;DHT22;662;48.814;9.318;2022-07-11T07:03:58;21.50;53.10
1337;DHT22;662;48.814;9.318;2022-07-11T07:06:24;21.60;52.90
1337;DHT22;662;48.814;9.318;2022-07-11T07:08:50;21.60;52.40
1337;DHT22;662;48.814;9.318;2022-07-11T07:11:16;21.60;52.30
1337;DHT22;662;48.814;9.318;2022-07-11T07:13:41;21.50;52.20
1337;DHT22;662;48.814;9.318;2022-07-11T07:16:07;21.60;52.50
1337;DHT22;662;48.814;9.318;2022-07-11T07:18:33;21.60;52.60
1337;DHT22;662;48.814;9.318;2022-07-11T07:20:59;21.70;52.60
1337;DHT22;662;48.814;9.318;2022-07-11T07:23:24;21.70;52.50
1337;DHT22;662;48.814;9.318;2022-07-11T07:25:50;21.70;51.70
1337;DHT22;662;48.814;9.318;2022-07-11T07:28:16;21.70;51.80
1337;DHT22;662;48.814;9.318;2022-07-11T07:30:42;21.80;52.10
1337;DHT22;662;48.814;9.318;2022-07-11T07:33:08;21.90;52.20
1337;DHT22;662;48.814;9.318;2022-07-11T07:35:33;21.90;51.70
1337;DHT22;662;48.814;9.318;2022-07-11T07:37:59;21.90;51.70
1337;DHT22;662;48.814;9.318;2022-07-11T07:40:26;21.90;51.70
1337;DHT22;662;48.814;9.318;2022-07-11T07:42:52;21.90;51.70
1337;DHT22;662;48.814;9.318;2022-07-11T07:45:17;21.90;51.90
1337;DHT22;662;48.814;9.318;2022-07-11T07:47:43;22.00;52.20
1337;DHT22;662;48.814;9.318;2022-07-11T07:50:09;22.20;52.10
1337;DHT22;662;48.814;9.318;2022-07-11T07:52:35;22.20;51.20
1337;DHT22;662;48.814;9.318;2022-07-11T07:55:00;22.20;50.90
1337;DHT22;662;48.814;9.318;2022-07-11T07:57:26;22.30;51.10
1337;DHT22;662;48.814;9.318;2022-07-11T07:59:52;22.30;51.00
1337;DHT22;662;48.814;9.318;2022-07-11T08:02:37;22.40;51.20
1337;DHT22;662;48.814;9.318;2022-07-11T08:05:03;22.50;51.20
1337;DHT22;662;48.814;9.318;2022-07-11T08:07:29;22.60;51.30
1337;DHT22;662;48.814;9.318;2022-07-11T08:09:54;22.70;51.30
1337;DHT22;662;48.814;9.318;2022-07-11T08:12:20;22.80;50.70
1337;DHT22;662;48.814;9.318;2022-07-11T08:14:46;23.00;50.20
1337;DHT22;662;48.814;9.318;2022-07-11T08:17:11;23.10;50.00
1337;DHT22;662;48.814;9.318;2022-07-11T08:19:37;23.10;49.70
1337;DHT22;662;48.814;9.318;2022-07-11T08:22:02;23.10;49.30
1337;DHT22;662;48.814;9.318;2022-07-11T08:24:28;23.10;49.50
1337;DHT22;662;48.814;9.318;2022-07-11T08:26:54;23.30;49.60
1337;DHT22;662;48.814;9.318;2022-07-11T08:29:19;23.30;49.30
1337;DHT22;662;48.814;9.318;2022-07-11T08:31:45;23.30;48.90
1337;DHT22;662;48.814;9.318;2022-07-11T08:34:10;23.30;49.00
1337;DHT22;662;48.814;9.318;2022-07-11T08:36:36;23.20;48.40
1337;DHT22;662;48.814;9.318;2022-07-11T08:39:02;23.10;49.30
1337;DHT22;662;48.814;9.318;2022-07-11T08:41:28;23.10;49.60
1337;DHT22;662;48.814;9.318;2022-07-11T08:43:54;23.20;49.30
1337;DHT22;662;48.814;9.318;2022-07-11T08:46:19;23.30;49.00
1337;DHT22;662;48.814;9.318;2022-07-11T08:48:46;23.40;49.40
1337;DHT22;662;48.814;9.318;2022-07-11T08:51:13;23.50;49.60
1337;DHT22;662;48.814;9.318;2022-07-11T08:53:42;23.60;49.30
1337;DHT22;662;48.814;9.318;2022-07-11T08:56:12;23.70;48.90
1337;DHT22;662;48.814;9.318;2022-07-11T08:58:43;23.70;48.60
1337;DHT22;662;48.814;9.318;2022-07-11T09:01:10;23.70;48.40
1337;DHT22;662;48.814;9.318;2022-07-11T09:03:36;23.70;48.30
1337;DHT22;662;48.814;9.318;2022-07-11T09:06:03;23.80;48.10
1337;DHT22;662;48.814;9.318;2022-07-11T09:08:29;23.90;48.10
1337;DHT22;662;48.814;9.318;2022-07-11T09:10:55;24.00;47.10
1337;DHT22;662;48.814;9.318;2022-07-11T09:13:27;24.10;46.70
1337;DHT22;662;48.814;9.318;2022-07-11T09:16:01;24.20;46.80
1337;DHT22;662;48.814;9.318;2022-07-11T09:21:10;24.30;46.50
1337;DHT22;662;48.814;9.318;2022-07-11T09:23:56;24.40;47.30
1337;DHT22;662;48.814;9.318;2022-07-11T09:26:46;24.60;47.20
1337;DHT22;662;48.814;9.318;2022-07-11T09:29:16;24.70;46.50
1337;DHT22;662;48.814;9.318;2022-07-11T09:31:43;24.90;46.40
1337;DHT22;662;48.814;9.318;2022-07-11T09:34:13;25.10;46.50
1337;DHT22;662;48.814;9.318;2022-07-11T09:36:44;25.30;46.10
1337;DHT22;662;48.814;9.318;2022-07-11T09:39:15;25.50;45.30
1337;DHT22;662;48.814;9.318;2022-07-11T09:41:42;25.70;45.20
1337;DHT22;662;48.814;9.318;2022-07-11T09:46:42;25.90;44.40
1337;DHT22;662;48.814;9.318;2022-07-11T09:49:08;25.90;43.50
1337;DHT22;662;48.814;9.318;2022-07-11T09:51:35;26.00;42.90
1337;DHT22;662;48.814;9.318;2022-07-11T09:54:02;26.00;42.70
1337;DHT22;662;48.814;9.318;2022-07-11T09:56:43;26.00;42.60
1337;DHT22;662;48.814;9.318;2022-07-11T09:59:12;25.90;43.40
1337;DHT22;662;48.814;9.318;2022-07-11T10:01:39;25.90;43.50
1337;DHT22;662;48.814;9.318;2022-07-11T10:04:09;25.80;43.50
1337;DHT22;662;48.814;9.318;2022-07-11T10:06:36;25.90;43.20
1337;DHT22;662;48.814;9.318;2022-07-11T10:09:03;25.90;42.80
1337;DHT22;662;48.814;9.318;2022-07-11T10:11:33;26.00;42.60
1337;DHT22;662;48.814;9.318;2022-07-11T10:14:01;26.00;42.60
1337;DHT22;662;48.814;9.318;2022-07-11T10:19:30;26.20;42.60
1337;DHT22;662;48.814;9.318;2022-07-11T10:22:22;26.40;42.60
1337;DHT22;662;48.814;9.318;2022-07-11T10:30:47;26.70;42.10
1337;DHT22;662;48.814;9.318;2022-07-11T10:33:14;27.00;42.30
1337;DHT22;662;48.814;9.318;2022-07-11T10:35:42;27.20;42.00
1337;DHT22;662;48.814;9.318;2022-07-11T10:38:08;27.40;41.70
1337;DHT22;662;48.814;9.318;2022-07-11T10:40:46;27.60;41.70
1337;DHT22;662;48.814;9.318;2022-07-11T10:43:32;27.80;40.80
1337;DHT22;662;48.814;9.318;2022-07-11T10:46:08;27.90;40.30
1337;DHT22;662;48.814;9.318;2022-07-11T11:00:07;28.00;39.70
1337;DHT22;662;48.814;9.318;2022-07-11T11:03:04;28.10;39.60
1337;DHT22;662;48.814;9.318;2022-07-11T11:11:06;28.40;38.80
1337;DHT22;662;48.814;9.318;2022-07-11T11:13:34;28.50;39.00
1337;DHT22;662;48.814;9.318;2022-07-11T11:16:21;28.50;38.80
1337;DHT22;662;48.814;9.318;2022-07-11T11:18:50;28.50;39.00
1337;DHT22;662;48.814;9.318;2022-07-11T11:21:20;28.50;38.60
1337;DHT22;662;48.814;9.318;2022-07-11T11:24:00;28.60;37.90
1337;DHT22;662;48.814;9.318;2022-07-11T11:26:50;28.90;37.90
1337;DHT22;662;48.814;9.318;2022-07-11T11:29:24;29.10;37.80
1337;DHT22;662;48.814;9.318;2022-07-11T11:31:56;29.40;38.00
1337;DHT22;662;48.814;9.318;2022-07-11T11:34:22;29.90;37.20
1337;DHT22;662;48.814;9.318;2022-07-11T11:37:00;30.30;36.10
1337;DHT22;662;48.814;9.318;2022-07-11T11:39:35;30.70;35.30
1337;DHT22;662;48.814;9.318;2022-07-11T11:42:03;31.10;35.30
1337;DHT22;662;48.814;9.318;2022-07-11T11:44:30;31.20;33.90
1337;DHT22;662;48.814;9.318;2022-07-11T11:46:56;31.10;33.40
1337;DHT22;662;48.814;9.318;2022-07-11T11:49:22;30.90;33.30
1337;DHT22;662;48.814;9.318;2022-07-11T11:51:47;30.90;34.40
1337;DHT22;662;48.814;9.318;2022-07-11T11:54:24;30.90;34.60
1337;DHT22;662;48.814;9.318;2022-07-11T11:56:50;30.90;34.50
1337;DHT22;662;48.814;9.318;2022-07-11T11:59:16;30.90;34.40
1337;DHT22;662;48.814;9.318;2022-07-11T12:01:47;30.90;34.80
1337;DHT22;662;48.814;9.318;2022-07-11T12:04:15;31.00;34.90
1337;DHT22;662;48.814;9.318;2022-07-11T12:06:44;30.90;35.00
1337;DHT22;662;48.814;9.318;2022-07-11T12:09:17;30.90;34.30
1337;DHT22;662;48.814;9.318;2022-07-11T12:11:50;31.00;34.80
1337;DHT22;662;48.814;9.318;2022-07-11T12:14:35;31.40;35.10
1337;DHT22;662;48.814;9.318;2022-07-11T12:17:01;31.90;34.30
1337;DHT22;662;48.814;9.318;2022-07-11T12:19:32;32.20;33.50
1337;DHT22;662;48.814;9.318;2022-07-11T12:22:02;32.50;33.10
1337;DHT22;662;48.814;9.318;2022-07-11T12:24:28;32.60;32.70
1337;DHT22;662;48.814;9.318;2022-07-11T12:26:55;32.70;32.40
1337;DHT22;662;48.814;9.318;2022-07-11T12:29:25;32.80;32.40
1337;DHT22;662;48.814;9.318;2022-07-11T12:32:01;33.00;31.90
1337;DHT22;662;48.814;9.318;2022-07-11T12:37:07;33.00;32.20
1337;DHT22;662;48.814;9.318;2022-07-11T12:39:35;33.20;32.50
1337;DHT22;662;48.814;9.318;2022-07-11T12:42:28;33.50;31.40
1337;DHT22;662;48.814;9.318;2022-07-11T12:45:09;33.50;31.00
1337;DHT22;662;48.814;9.318;2022-07-11T12:47:44;33.30;30.80
1337;DHT22;662;48.814;9.318;2022-07-11T12:50:14;33.00;31.00
1337;DHT22;662;48.814;9.318;2022-07-11T12:52:42;32.70;31.70
1337;DHT22;662;48.814;9.318;2022-07-11T12:55:11;32.60;32.30
1337;DHT22;662;48.814;9.318;2022-07-11T13:00:29;32.20;32.20
1337;DHT22;662;48.814;9.318;2022-07-11T13:02:55;32.00;33.00
1337;DHT22;662;48.814;9.318;2022-07-11T13:05:21;31.80;33.50
1337;DHT22;662;48.814;9.318;2022-07-11T13:07:47;31.60;33.40
1337;DHT22;662;48.814;9.318;2022-07-11T13:10:39;31.60;33.70
1337;DHT22;662;48.814;9.318;2022-07-11T13:13:18;31.80;34.10
1337;DHT22;662;48.814;9.318;2022-07-11T13:15:45;31.90;34.10
1337;DHT22;662;48.814;9.318;2022-07-11T13:18:12;31.80;33.20
1337;DHT22;662;48.814;9.318;2022-07-11T13:20:39;31.70;33.50
1337;DHT22;662;48.814;9.318;2022-07-11T13:23:05;31.70;33.90
1337;DHT22;662;48.814;9.318;2022-07-11T13:25:33;31.70;34.30
1337;DHT22;662;48.814;9.318;2022-07-11T13:27:59;31.50;34.10
1337;DHT22;662;48.814;9.318;2022-07-11T13:30:24;31.50;34.50
1337;DHT22;662;48.814;9.318;2022-07-11T13:32:57;31.40;34.20
1337;DHT22;662;48.814;9.318;2022-07-11T13:35:23;31.20;34.70
1337;DHT22;662;48.814;9.318;2022-07-11T13:37:49;31.00;35.00
1337;DHT22;662;48.814;9.318;2022-07-11T13:40:19;30.80;35.40
1337;DHT22;662;48.814;9.318;2022-07-11T13:42:46;30.70;35.60
1337;DHT22;662;48.814;9.318;2022-07-11T13:45:15;30.50;35.50
1337;DHT22;662;48.814;9.318;2022-07-11T13:47:41;30.30;36.30
1337;DHT22;662;48.814;9.318;2022-07-11T13:50:08;30.30;36.50
1337;DHT22;662;48.814;9.318;2022-07-11T13:52:33;30.30;36.50
1337;DHT22;662;48.814;9.318;2022-07-11T13:55:00;30.40;36.40
1337;DHT22;662;48.814;9.318;2022-07-11T13:57:26;30.40;36.50
1337;DHT22;662;48.814;9.318;2022-07-11T13:59:52;30.60;36.30
1337;DHT22;662;48.814;9.318;2022-07-11T14:02:18;30.60;36.00
1337;DHT22;662;48.814;9.318;2022-07-11T14:04:44;30.60;36.00
1337;DHT22;662;48.814;9.318;2022-07-11T14:07:10;30.50;36.10
1337;DHT22;662;48.814;9.318;2022-07-11T14:09:38;30.50;36.20
1337;DHT22;662;48.814;9.318;2022-07-11T14:12:04;30.40;36.50
1337;DHT22;662;48.814;9.318;2022-07-11T14:14:31;30.40;36.50
1337;DHT22;662;48.814;9.318;2022-07-11T14:16:58;30.40;37.20
1337;DHT22;662;48.814;9.318;2022-07-11T14:19:23;30.50;36.80
1337;DHT22;662;48.814;9.318;2022-07-11T14:21:49;30.60;36.70
1337;DHT22;662;48.814;9.318;2022-07-11T14:24:15;30.50;36.30
1337;DHT22;662;48.814;9.318;2022-07-11T14:26:41;30.30;36.00
1337;DHT22;662;48.814;9.318;2022-07-11T14:29:07;30.10;36.10
1337;DHT22;662;48.814;9.318;2022-07-11T14:31:33;29.90;36.30
1337;DHT22;662;48.814;9.318;2022-07-11T14:33:59;29.80;36.50
1337;DHT22;662;48.814;9.318;2022-07-11T14:36:25;29.80;36.80
1337;DHT22;662;48.814;9.318;2022-07-11T14:38:51;30.10;36.80
1337;DHT22;662;48.814;9.318;2022-07-11T14:41:18;30.40;36.90
1337;DHT22;662;48.814;9.318;2022-07-11T14:43:44;30.50;36.40
1337;DHT22;662;48.814;9.318;2022-07-11T14:46:12;30.80;36.20
1337;DHT22;662;48.814;9.318;2022-07-11T14:48:38;31.40;36.00
1337;DHT22;662;48.814;9.318;2022-07-11T14:51:04;31.70;34.60
1337;DHT22;662;48.814;9.318;2022-07-11T14:53:30;31.70;34.20
1337;DHT22;662;48.814;9.318;2022-07-11T14:55:56;31.50;34.00
1337;DHT22;662;48.814;9.318;2022-07-11T14:58:22;31.20;34.40
1337;DHT22;662;48.814;9.318;2022-07-11T15:00:48;30.90;34.80
1337;DHT22;662;48.814;9.318;2022-07-11T15:03:13;30.60;35.10
1337;DHT22;662;48.814;9.318;2022-07-11T15:05:58;30.20;35.60
1337;DHT22;662;48.814;9.318;2022-07-11T15:08:24;29.80;35.90
1337;DHT22;662;48.814;9.318;2022-07-11T15:11:08;29.60;36.40
1337;DHT22;662;48.814;9.318;2022-07-11T15:13:53;29.40;36.80
1337;DHT22;662;48.814;9.318;2022-07-11T15:16:19;29.40;37.20
1337;DHT22;662;48.814;9.318;2022-07-11T15:18:45;29.30;37.50
1337;DHT22;662;48.814;9.318;2022-07-11T15:21:11;29.20;37.60
1337;DHT22;662;48.814;9.318;2022-07-11T15:23:36;29.10;37.80
1337;DHT22;662;48.814;9.318;2022-07-11T15:26:03;29.30;37.90
1337;DHT22;662;48.814;9.318;2022-07-11T15:28:28;29.30;37.60
1337;DHT22;662;48.814;9.318;2022-07-11T15:30:54;29.20;38.00
1337;DHT22;662;48.814;9.318;2022-07-11T15:33:20;29.20;38.10
1337;DHT22;662;48.814;9.318;2022-07-11T15:35:50;29.20;38.60
1337;DHT22;662;48.814;9.318;2022-07-11T15:38:16;29.10;38.40
1337;DHT22;662;48.814;9.318;2022-07-11T15:40:42;29.00;38.40
1337;DHT22;662;48.814;9.318;2022-07-11T15:43:08;29.00;38.50
1337;DHT22;662;48.814;9.318;2022-07-11T15:45:33;29.00;38.40
1337;DHT22;662;48.814;9.318;2022-07-11T15:47:59;28.90;38.60
1337;DHT22;662;48.814;9.318;2022-07-11T15:50:25;28.90;38.70
1337;DHT22;662;48.814;9.318;2022-07-11T15:52:51;28.80;39.10
1337;DHT22;662;48.814;9.318;2022-07-11T15:55:17;28.80;39.50
1337;DHT22;662;48.814;9.318;2022-07-11T15:57:43;28.80;39.50
1337;DHT22;662;48.814;9.318;2022-07-11T16:00:09;28.70;39.20
1337;DHT22;662;48.814;9.318;2022-07-11T16:02:40;28.60;39.50
1337;DHT22;662;48.814;9.318;2022-07-11T16:05:06;28.50;39.60
1337;DHT22;662;48.814;9.318;2022-07-11T16:07:33;28.50;39.70
1337;DHT22;662;48.814;9.318;2022-07-11T16:09:59;28.30;39.40
1337;DHT22;662;48.814;9.318;2022-07-11T16:12:27;28.20;39.40
1337;DHT22;662;48.814;9.318;2022-07-11T16:14:53;28.00;39.80
1337;DHT22;662;48.814;9.318;2022-07-11T16:17:19;28.00;40.20
1337;DHT22;662;48.814;9.318;2022-07-11T16:19:45;27.80;40.10
1337;DHT22;662;48.814;9.318;2022-07-11T16:22:11;27.60;40.20
1337;DHT22;662;48.814;9.318;2022-07-11T16:24:37;27.50;40.50
1337;DHT22;662;48.814;9.318;2022-07-11T16:27:04;27.40;40.80
1337;DHT22;662;48.814;9.318;2022-07-11T16:29:29;27.20;40.80
1337;DHT22;662;48.814;9.318;2022-07-11T16:31:55;27.10;40.90
1337;DHT22;662;48.814;9.318;2022-07-11T16:34:21;27.00;41.10
1337;DHT22;662;48.814;9.318;2022-07-11T16:36:48;27.00;41.40
1337;DHT22;662;48.814;9.318;2022-07-11T16:39:14;26.90;41.40
1337;DHT22;662;48.814;9.318;2022-07-11T16:41:58;26.80;42.00
1337;DHT22;662;48.814;9.318;2022-07-11T16:44:42;26.70;41.30
1337;DHT22;662;48.814;9.318;2022-07-11T16:47:08;26.60;41.40
1337;DHT22;662;48.814;9.318;2022-07-11T16:49:34;26.50;41.50
1337;DHT22;662;48.814;9.318;2022-07-11T16:51:59;26.40;41.70
1337;DHT22;662;48.814;9.318;2022-07-11T16:54:25;26.40;42.00
1337;DHT22;662;48.814;9.318;2022-07-11T16:56:52;26.30;42.10